sensor_id;sensor_type;location;lat;lon;timestamp;P1;durP1;ratioP1;P2;durP2;ratioP2
49556;SDS011;35462;45.048;7.666;2023-01-24T00:11:35;7.82;;;4.65;;
49556;SDS011;35462;45.048;7.666;2023-01-24T00:26:51;6.05;;;4.97;;
49556;SDS011;35462;45.048;7.666;2023-01-24T00:42:07;8.15;;;4.32;;
49556;SDS011;35462;45.048;7.666;2023-01-24T00:57:25;7.18;;;5.03;;
49556;SDS011;35462;45.048;7.666;2023-01-24T01:12:41;6.70;;;4.70;;
49556;SDS011;35462;45.048;7.666;2023-01-24T01:27:57;7.88;;;5.10;;
49556;SDS011;35462;45.048;7.666;2023-01-24T01:43:14;9.82;;;4.55;;
49556;SDS011;35462;45.048;7.666;2023-01-24T01:58:31;6.50;;;5.00;;
49556;SDS011;35462;45.048;7.666;2023-01-24T02:13:48;6.35;;;5.18;;
49556;SDS011;35462;45.048;7.666;2023-01-24T02:29:24;8.80;;;6.30;;
49556;SDS011;35462;45.048;7.666;2023-01-24T03:00:02;9.48;;;7.00;;
49556;SDS011;35462;45.048;7.666;2023-01-24T03:15:20;8.63;;;6.68;;
49556;SDS011;35462;45.048;7.666;2023-01-24T03:30:52;11.38;;;8.50;;
49556;SDS011;35462;45.048;7.666;2023-01-24T03:46:24;9.10;;;6.70;;
49556;SDS011;35462;45.048;7.666;2023-01-24T04:01:41;10.57;;;6.85;;
49556;SDS011;35462;45.048;7.666;2023-01-24T04:17:05;10.50;;;5.82;;
49556;SDS011;35462;45.048;7.666;2023-01-24T04:32:29;8.63;;;5.53;;
49556;SDS011;35462;45.048;7.666;2023-01-24T04:47:59;8.70;;;7.20;;
49556;SDS011;35462;45.048;7.666;2023-01-24T05:03:15;10.55;;;8.32;;
49556;SDS011;35462;45.048;7.666;2023-01-24T05:18:31;8.82;;;7.03;;
49556;SDS011;35462;45.048;7.666;2023-01-24T05:33:47;8.75;;;7.18;;
49556;SDS011;35462;45.048;7.666;2023-01-24T05:49:03;8.43;;;7.22;;
49556;SDS011;35462;45.048;7.666;2023-01-24T06:04:19;6.57;;;5.85;;
49556;SDS011;35462;45.048;7.666;2023-01-24T06:19:35;6.75;;;5.82;;
49556;SDS011;35462;45.048;7.666;2023-01-24T06:50:31;7.82;;;5.68;;
49556;SDS011;35462;45.048;7.666;2023-01-24T07:05:47;8.02;;;6.65;;
49556;SDS011;35462;45.048;7.666;2023-01-24T07:21:04;9.90;;;7.40;;
49556;SDS011;35462;45.048;7.666;2023-01-24T07:36:21;9.65;;;7.00;;
49556;SDS011;35462;45.048;7.666;2023-01-24T07:51:37;12.77;;;6.78;;
49556;SDS011;35462;45.048;7.666;2023-01-24T08:06:53;8.10;;;6.65;;
49556;SDS011;35462;45.048;7.666;2023-01-24T08:22:24;10.57;;;6.80;;
49556;SDS011;35462;45.048;7.666;2023-01-24T08:37:40;11.65;;;6.88;;
49556;SDS011;35462;45.048;7.666;2023-01-24T08:52:56;9.60;;;7.25;;
49556;SDS011;35462;45.048;7.666;2023-01-24T09:08:14;9.65;;;7.00;;
49556;SDS011;35462;45.048;7.666;2023-01-24T09:23:30;8.93;;;6.63;;
49556;SDS011;35462;45.048;7.666;2023-01-24T09:38:46;13.23;;;6.63;;
49556;SDS011;35462;45.048;7.666;2023-01-24T09:54:02;12.77;;;7.43;;
49556;SDS011;35462;45.048;7.666;2023-01-24T10:09:23;9.45;;;5.53;;
49556;SDS011;35462;45.048;7.666;2023-01-24T10:24:52;6.43;;;4.15;;
49556;SDS011;35462;45.048;7.666;2023-01-24T10:40:16;6.18;;;3.70;;
49556;SDS011;35462;45.048;7.666;2023-01-24T10:55:33;5.25;;;3.88;;
49556;SDS011;35462;45.048;7.666;2023-01-24T11:10:54;6.90;;;5.35;;
49556;SDS011;35462;45.048;7.666;2023-01-24T11:41:38;7.85;;;6.20;;
49556;SDS011;35462;45.048;7.666;2023-01-24T11:57:12;8.70;;;7.05;;
49556;SDS011;35462;45.048;7.666;2023-01-24T12:12:42;7.78;;;6.13;;
49556;SDS011;35462;45.048;7.666;2023-01-24T12:28:04;8.30;;;5.60;;
49556;SDS011;35462;45.048;7.666;2023-01-24T12:58:48;6.00;;;4.28;;
49556;SDS011;35462;45.048;7.666;2023-01-24T13:29:51;4.40;;;3.25;;
49556;SDS011;35462;45.048;7.666;2023-01-24T14:00:48;4.18;;;2.17;;
49556;SDS011;35462;45.048;7.666;2023-01-24T14:16:10;3.72;;;1.83;;
49556;SDS011;35462;45.048;7.666;2023-01-24T14:31:30;3.72;;;2.35;;
49556;SDS011;35462;45.048;7.666;2023-01-24T14:46:51;7.40;;;5.03;;
49556;SDS011;35462;45.048;7.666;2023-01-24T15:02:14;8.30;;;4.00;;
49556;SDS011;35462;45.048;7.666;2023-01-24T15:17:31;7.45;;;4.45;;
49556;SDS011;35462;45.048;7.666;2023-01-24T15:48:12;5.68;;;4.13;;
49556;SDS011;35462;45.048;7.666;2023-01-24T16:03:35;5.68;;;4.07;;
49556;SDS011;35462;45.048;7.666;2023-01-24T16:18:53;8.98;;;4.57;;
49556;SDS011;35462;45.048;7.666;2023-01-24T16:34:08;7.15;;;4.55;;
49556;SDS011;35462;45.048;7.666;2023-01-24T16:49:24;5.22;;;4.28;;
49556;SDS011;35462;45.048;7.666;2023-01-24T17:04:40;9.45;;;4.95;;
49556;SDS011;35462;45.048;7.666;2023-01-24T17:19:57;8.75;;;6.68;;
49556;SDS011;35462;45.048;7.666;2023-01-24T17:35:13;9.30;;;5.80;;
49556;SDS011;35462;45.048;7.666;2023-01-24T17:50:30;6.63;;;5.53;;
49556;SDS011;35462;45.048;7.666;2023-01-24T18:05:46;9.38;;;7.18;;
49556;SDS011;35462;45.048;7.666;2023-01-24T18:36:34;12.68;;;6.72;;
49556;SDS011;35462;45.048;7.666;2023-01-24T18:51:50;9.60;;;6.03;;
49556;SDS011;35462;45.048;7.666;2023-01-24T19:07:05;10.40;;;6.05;;
49556;SDS011;35462;45.048;7.666;2023-01-24T19:22:22;10.38;;;6.10;;
49556;SDS011;35462;45.048;7.666;2023-01-24T19:37:38;14.18;;;7.38;;
49556;SDS011;35462;45.048;7.666;2023-01-24T19:52:54;10.88;;;7.40;;
49556;SDS011;35462;45.048;7.666;2023-01-24T20:08:12;10.02;;;7.35;;
49556;SDS011;35462;45.048;7.666;2023-01-24T20:23:28;11.13;;;6.80;;
49556;SDS011;35462;45.048;7.666;2023-01-24T20:38:44;10.88;;;7.57;;
49556;SDS011;35462;45.048;7.666;2023-01-24T20:54:01;12.07;;;6.80;;
49556;SDS011;35462;45.048;7.666;2023-01-24T21:09:17;12.45;;;10.02;;
49556;SDS011;35462;45.048;7.666;2023-01-24T21:24:32;17.55;;;10.77;;
49556;SDS011;35462;45.048;7.666;2023-01-24T21:39:48;15.60;;;11.15;;
49556;SDS011;35462;45.048;7.666;2023-01-24T21:55:04;19.40;;;11.07;;
49556;SDS011;35462;45.048;7.666;2023-01-24T22:10:20;18.92;;;12.75;;
49556;SDS011;35462;45.048;7.666;2023-01-24T22:41:00;18.10;;;11.98;;
49556;SDS011;35462;45.048;7.666;2023-01-24T22:56:16;17.52;;;12.23;;
49556;SDS011;35462;45.048;7.666;2023-01-24T23:11:32;16.90;;;11.98;;
49556;SDS011;35462;45.048;7.666;2023-01-24T23:26:48;14.40;;;10.27;;
49556;SDS011;35462;45.048;7.666;2023-01-24T23:42:04;15.98;;;11.38;;
49556;SDS011;35462;45.048;7.666;2023-01-24T23:57:19;18.85;;;11.75;;
